sensor_id;sensor_type;location;lat;lon;timestamp;P1;durP1;ratioP1;P2;durP2;ratioP2
15806;SDS011;8005;51.368;6.140;2022-09-12T00:00:44;17.40;;;13.70;;
15806;SDS011;8005;51.368;6.140;2022-09-12T00:02:16;20.58;;;14.98;;
15806;SDS011;8005;51.368;6.140;2022-09-12T00:03:50;17.73;;;14.23;;
15806;SDS011;8005;51.368;6.140;2022-09-12T00:07:01;18.63;;;13.20;;
15806;SDS011;8005;51.368;6.140;2022-09-12T00:08:33;19.35;;;14.27;;
15806;SDS011;8005;51.368;6.140;2022-09-12T00:10:05;20.07;;;13.83;;
15806;SDS011;8005;51.368;6.140;2022-09-12T00:13:09;19.85;;;12.73;;
15806;SDS011;8005;51.368;6.140;2022-09-12T00:14:42;19.85;;;14.82;;
15806;SDS011;8005;51.368;6.140;2022-09-12T00:16:15;18.55;;;13.25;;
15806;SDS011;8005;51.368;6.140;2022-09-12T00:17:47;19.60;;;13.43;;
15806;SDS011;8005;51.368;6.140;2022-09-12T00:21:03;25.80;;;18.05;;
15806;SDS011;8005;51.368;6.140;2022-09-12T00:22:35;27.55;;;18.58;;
15806;SDS011;8005;51.368;6.140;2022-09-12T00:24:09;24.05;;;17.60;;
15806;SDS011;8005;51.368;6.140;2022-09-12T00:25:45;20.83;;;15.18;;
15806;SDS011;8005;51.368;6.140;2022-09-12T00:27:17;21.92;;;15.13;;
15806;SDS011;8005;51.368;6.140;2022-09-12T00:28:49;18.40;;;14.18;;
15806;SDS011;8005;51.368;6.140;2022-09-12T00:31:53;16.67;;;13.38;;
15806;SDS011;8005;51.368;6.140;2022-09-12T00:33:25;18.45;;;14.30;;
15806;SDS011;8005;51.368;6.140;2022-09-12T00:34:57;18.47;;;14.27;;
15806;SDS011;8005;51.368;6.140;2022-09-12T00:36:29;17.60;;;13.05;;
15806;SDS011;8005;51.368;6.140;2022-09-12T00:38:01;16.63;;;13.00;;
15806;SDS011;8005;51.368;6.140;2022-09-12T00:41:33;17.70;;;13.13;;
15806;SDS011;8005;51.368;6.140;2022-09-12T00:43:07;17.98;;;13.35;;
15806;SDS011;8005;51.368;6.140;2022-09-12T00:44:42;16.85;;;12.35;;
15806;SDS011;8005;51.368;6.140;2022-09-12T00:47:55;13.57;;;12.02;;
15806;SDS011;8005;51.368;6.140;2022-09-12T00:49:33;16.50;;;13.15;;
15806;SDS011;8005;51.368;6.140;2022-09-12T00:51:09;16.10;;;13.00;;
15806;SDS011;8005;51.368;6.140;2022-09-12T00:52:43;15.43;;;12.73;;
15806;SDS011;8005;51.368;6.140;2022-09-12T00:54:21;21.25;;;13.75;;
15806;SDS011;8005;51.368;6.140;2022-09-12T00:55:55;15.68;;;12.27;;
15806;SDS011;8005;51.368;6.140;2022-09-12T00:57:30;18.10;;;15.05;;
15806;SDS011;8005;51.368;6.140;2022-09-12T00:59:04;20.55;;;13.85;;
15806;SDS011;8005;51.368;6.140;2022-09-12T01:00:39;17.27;;;13.68;;
15806;SDS011;8005;51.368;6.140;2022-09-12T01:02:14;15.73;;;12.70;;
15806;SDS011;8005;51.368;6.140;2022-09-12T01:03:47;16.33;;;14.05;;
15806;SDS011;8005;51.368;6.140;2022-09-12T01:05:19;18.48;;;13.05;;
15806;SDS011;8005;51.368;6.140;2022-09-12T01:06:51;18.00;;;12.90;;
15806;SDS011;8005;51.368;6.140;2022-09-12T01:08:26;17.20;;;12.68;;
15806;SDS011;8005;51.368;6.140;2022-09-12T01:09:58;16.60;;;12.95;;
15806;SDS011;8005;51.368;6.140;2022-09-12T01:11:31;17.95;;;12.77;;
15806;SDS011;8005;51.368;6.140;2022-09-12T01:13:04;16.88;;;11.80;;
15806;SDS011;8005;51.368;6.140;2022-09-12T01:14:37;16.63;;;12.63;;
15806;SDS011;8005;51.368;6.140;2022-09-12T01:16:09;18.40;;;13.45;;
15806;SDS011;8005;51.368;6.140;2022-09-12T01:29:31;20.92;;;14.85;;
15806;SDS011;8005;51.368;6.140;2022-09-12T01:31:16;20.20;;;13.80;;
15806;SDS011;8005;51.368;6.140;2022-09-12T01:35:01;17.38;;;12.82;;
15806;SDS011;8005;51.368;6.140;2022-09-12T01:38:09;18.58;;;13.63;;
15806;SDS011;8005;51.368;6.140;2022-09-12T01:39:58;19.95;;;14.65;;
15806;SDS011;8005;51.368;6.140;2022-09-12T01:43:20;22.33;;;14.65;;
15806;SDS011;8005;51.368;6.140;2022-09-12T01:49:00;23.92;;;16.60;;
15806;SDS011;8005;51.368;6.140;2022-09-12T01:50:34;23.58;;;15.82;;
15806;SDS011;8005;51.368;6.140;2022-09-12T01:52:19;25.65;;;16.13;;
15806;SDS011;8005;51.368;6.140;2022-09-12T01:53:53;22.38;;;16.20;;
15806;SDS011;8005;51.368;6.140;2022-09-12T01:55:32;23.65;;;15.60;;
15806;SDS011;8005;51.368;6.140;2022-09-12T01:57:08;23.23;;;15.95;;
15806;SDS011;8005;51.368;6.140;2022-09-12T01:58:43;23.45;;;16.25;;
15806;SDS011;8005;51.368;6.140;2022-09-12T02:00:16;27.17;;;17.52;;
15806;SDS011;8005;51.368;6.140;2022-09-12T02:01:52;22.60;;;16.52;;
15806;SDS011;8005;51.368;6.140;2022-09-12T02:03:31;26.02;;;15.35;;
15806;SDS011;8005;51.368;6.140;2022-09-12T02:05:17;23.45;;;15.88;;
15806;SDS011;8005;51.368;6.140;2022-09-12T02:10:55;27.13;;;18.17;;
15806;SDS011;8005;51.368;6.140;2022-09-12T02:12:29;25.52;;;17.45;;
15806;SDS011;8005;51.368;6.140;2022-09-12T02:14:05;26.95;;;18.75;;
15806;SDS011;8005;51.368;6.140;2022-09-12T02:15:38;28.73;;;19.02;;
15806;SDS011;8005;51.368;6.140;2022-09-12T02:17:15;32.33;;;18.08;;
15806;SDS011;8005;51.368;6.140;2022-09-12T02:20:39;28.83;;;19.30;;
15806;SDS011;8005;51.368;6.140;2022-09-12T02:22:19;32.25;;;21.05;;
15806;SDS011;8005;51.368;6.140;2022-09-12T02:23:53;31.05;;;20.08;;
15806;SDS011;8005;51.368;6.140;2022-09-12T02:25:26;34.72;;;21.75;;
15806;SDS011;8005;51.368;6.140;2022-09-12T02:27:04;33.13;;;21.27;;
15806;SDS011;8005;51.368;6.140;2022-09-12T02:28:37;36.38;;;21.90;;
15806;SDS011;8005;51.368;6.140;2022-09-12T02:30:13;36.42;;;23.40;;
15806;SDS011;8005;51.368;6.140;2022-09-12T02:35:47;40.05;;;23.85;;
15806;SDS011;8005;51.368;6.140;2022-09-12T02:38:51;41.95;;;23.55;;
15806;SDS011;8005;51.368;6.140;2022-09-12T02:40:27;41.53;;;24.50;;
15806;SDS011;8005;51.368;6.140;2022-09-12T02:43:40;43.20;;;24.98;;
15806;SDS011;8005;51.368;6.140;2022-09-12T02:46:51;43.85;;;25.23;;
15806;SDS011;8005;51.368;6.140;2022-09-12T02:48:30;46.08;;;26.15;;
15806;SDS011;8005;51.368;6.140;2022-09-12T02:50:05;48.08;;;25.90;;
15806;SDS011;8005;51.368;6.140;2022-09-12T02:51:38;44.40;;;26.63;;
15806;SDS011;8005;51.368;6.140;2022-09-12T02:53:10;39.63;;;22.25;;
15806;SDS011;8005;51.368;6.140;2022-09-12T02:54:42;43.45;;;25.15;;
15806;SDS011;8005;51.368;6.140;2022-09-12T02:56:20;42.33;;;25.42;;
15806;SDS011;8005;51.368;6.140;2022-09-12T02:57:53;42.15;;;24.50;;
15806;SDS011;8005;51.368;6.140;2022-09-12T02:59:25;40.33;;;24.17;;
15806;SDS011;8005;51.368;6.140;2022-09-12T03:01:07;41.20;;;22.35;;
15806;SDS011;8005;51.368;6.140;2022-09-12T03:02:50;36.83;;;23.40;;
15806;SDS011;8005;51.368;6.140;2022-09-12T03:06:02;41.60;;;24.67;;
15806;SDS011;8005;51.368;6.140;2022-09-12T03:07:41;40.70;;;24.15;;
15806;SDS011;8005;51.368;6.140;2022-09-12T03:24:26;40.88;;;23.95;;
15806;SDS011;8005;51.368;6.140;2022-09-12T03:26:01;39.55;;;23.38;;
15806;SDS011;8005;51.368;6.140;2022-09-12T03:27:38;41.83;;;25.08;;
15806;SDS011;8005;51.368;6.140;2022-09-12T03:29:11;40.72;;;24.35;;
15806;SDS011;8005;51.368;6.140;2022-09-12T03:30:47;40.72;;;23.85;;
15806;SDS011;8005;51.368;6.140;2022-09-12T03:32:19;42.60;;;24.15;;
15806;SDS011;8005;51.368;6.140;2022-09-12T03:35:30;44.78;;;25.83;;
15806;SDS011;8005;51.368;6.140;2022-09-12T03:37:02;45.35;;;25.10;;
15806;SDS011;8005;51.368;6.140;2022-09-12T03:38:33;41.23;;;25.00;;
15806;SDS011;8005;51.368;6.140;2022-09-12T03:40:06;41.93;;;24.40;;
15806;SDS011;8005;51.368;6.140;2022-09-12T03:41:39;41.58;;;25.13;;
15806;SDS011;8005;51.368;6.140;2022-09-12T03:43:11;46.95;;;27.42;;
15806;SDS011;8005;51.368;6.140;2022-09-12T03:44:42;46.27;;;27.20;;
15806;SDS011;8005;51.368;6.140;2022-09-12T03:46:14;53.85;;;28.65;;
15806;SDS011;8005;51.368;6.140;2022-09-12T03:47:47;52.25;;;29.40;;
15806;SDS011;8005;51.368;6.140;2022-09-12T03:49:19;49.83;;;28.15;;
15806;SDS011;8005;51.368;6.140;2022-09-12T03:50:50;50.45;;;27.67;;
15806;SDS011;8005;51.368;6.140;2022-09-12T03:52:22;46.42;;;27.08;;
15806;SDS011;8005;51.368;6.140;2022-09-12T03:53:54;46.88;;;26.10;;
15806;SDS011;8005;51.368;6.140;2022-09-12T03:55:28;44.83;;;26.20;;
15806;SDS011;8005;51.368;6.140;2022-09-12T03:57:00;46.83;;;26.65;;
15806;SDS011;8005;51.368;6.140;2022-09-12T03:58:32;41.72;;;25.17;;
15806;SDS011;8005;51.368;6.140;2022-09-12T04:00:04;44.13;;;26.70;;
15806;SDS011;8005;51.368;6.140;2022-09-12T04:01:42;50.70;;;27.67;;
15806;SDS011;8005;51.368;6.140;2022-09-12T04:03:15;45.30;;;26.73;;
15806;SDS011;8005;51.368;6.140;2022-09-12T04:06:20;45.58;;;25.95;;
15806;SDS011;8005;51.368;6.140;2022-09-12T04:09:24;49.22;;;27.35;;
15806;SDS011;8005;51.368;6.140;2022-09-12T04:11:06;50.20;;;27.23;;
15806;SDS011;8005;51.368;6.140;2022-09-12T04:12:38;52.33;;;28.67;;
15806;SDS011;8005;51.368;6.140;2022-09-12T04:14:10;51.85;;;28.52;;
15806;SDS011;8005;51.368;6.140;2022-09-12T04:15:41;53.55;;;28.92;;
15806;SDS011;8005;51.368;6.140;2022-09-12T04:17:13;47.78;;;27.80;;
15806;SDS011;8005;51.368;6.140;2022-09-12T04:18:45;49.17;;;26.15;;
15806;SDS011;8005;51.368;6.140;2022-09-12T04:20:17;45.22;;;26.65;;
15806;SDS011;8005;51.368;6.140;2022-09-12T04:21:52;50.92;;;26.67;;
15806;SDS011;8005;51.368;6.140;2022-09-12T04:23:24;47.33;;;27.23;;
15806;SDS011;8005;51.368;6.140;2022-09-12T04:24:56;46.42;;;25.60;;
15806;SDS011;8005;51.368;6.140;2022-09-12T04:26:28;45.80;;;26.60;;
15806;SDS011;8005;51.368;6.140;2022-09-12T04:28:00;46.90;;;27.33;;
15806;SDS011;8005;51.368;6.140;2022-09-12T04:29:32;52.70;;;29.15;;
15806;SDS011;8005;51.368;6.140;2022-09-12T04:31:07;57.13;;;29.20;;
15806;SDS011;8005;51.368;6.140;2022-09-12T04:32:39;53.63;;;29.40;;
15806;SDS011;8005;51.368;6.140;2022-09-12T04:34:11;46.10;;;27.20;;
15806;SDS011;8005;51.368;6.140;2022-09-12T04:35:43;51.90;;;27.73;;
15806;SDS011;8005;51.368;6.140;2022-09-12T04:37:15;47.45;;;26.35;;
15806;SDS011;8005;51.368;6.140;2022-09-12T04:38:47;48.33;;;27.63;;
15806;SDS011;8005;51.368;6.140;2022-09-12T04:40:19;53.90;;;29.05;;
15806;SDS011;8005;51.368;6.140;2022-09-12T04:41:51;59.72;;;30.40;;
15806;SDS011;8005;51.368;6.140;2022-09-12T04:43:23;56.05;;;29.38;;
15806;SDS011;8005;51.368;6.140;2022-09-12T04:44:55;52.47;;;29.33;;
15806;SDS011;8005;51.368;6.140;2022-09-12T04:46:27;59.33;;;32.88;;
15806;SDS011;8005;51.368;6.140;2022-09-12T04:47:59;52.08;;;28.80;;
15806;SDS011;8005;51.368;6.140;2022-09-12T04:49:32;51.33;;;29.48;;
15806;SDS011;8005;51.368;6.140;2022-09-12T04:51:12;54.95;;;31.40;;
15806;SDS011;8005;51.368;6.140;2022-09-12T04:52:53;61.00;;;30.38;;
15806;SDS011;8005;51.368;6.140;2022-09-12T04:54:25;62.40;;;32.45;;
15806;SDS011;8005;51.368;6.140;2022-09-12T04:56:00;67.38;;;31.77;;
15806;SDS011;8005;51.368;6.140;2022-09-12T04:57:32;57.28;;;30.90;;
15806;SDS011;8005;51.368;6.140;2022-09-12T04:59:04;57.95;;;32.63;;
15806;SDS011;8005;51.368;6.140;2022-09-12T05:00:36;58.03;;;31.88;;
15806;SDS011;8005;51.368;6.140;2022-09-12T05:02:08;59.00;;;31.73;;
15806;SDS011;8005;51.368;6.140;2022-09-12T05:03:40;65.07;;;34.08;;
15806;SDS011;8005;51.368;6.140;2022-09-12T05:05:13;59.97;;;32.08;;
15806;SDS011;8005;51.368;6.140;2022-09-12T05:06:45;59.03;;;33.08;;
15806;SDS011;8005;51.368;6.140;2022-09-12T05:08:17;66.90;;;32.70;;
15806;SDS011;8005;51.368;6.140;2022-09-12T05:09:49;66.55;;;35.10;;
15806;SDS011;8005;51.368;6.140;2022-09-12T05:11:24;67.75;;;34.20;;
15806;SDS011;8005;51.368;6.140;2022-09-12T05:13:18;64.00;;;33.67;;
15806;SDS011;8005;51.368;6.140;2022-09-12T05:14:56;58.45;;;31.45;;
15806;SDS011;8005;51.368;6.140;2022-09-12T05:16:28;62.67;;;33.97;;
15806;SDS011;8005;51.368;6.140;2022-09-12T05:18:01;59.78;;;32.22;;
15806;SDS011;8005;51.368;6.140;2022-09-12T05:19:36;70.05;;;35.47;;
15806;SDS011;8005;51.368;6.140;2022-09-12T05:21:10;66.10;;;35.38;;
15806;SDS011;8005;51.368;6.140;2022-09-12T05:22:42;70.00;;;34.40;;
15806;SDS011;8005;51.368;6.140;2022-09-12T05:24:14;71.55;;;36.50;;
15806;SDS011;8005;51.368;6.140;2022-09-12T05:25:47;71.10;;;35.77;;
15806;SDS011;8005;51.368;6.140;2022-09-12T05:27:20;71.57;;;37.17;;
15806;SDS011;8005;51.368;6.140;2022-09-12T05:28:55;66.80;;;35.83;;
15806;SDS011;8005;51.368;6.140;2022-09-12T05:30:27;67.13;;;35.40;;
15806;SDS011;8005;51.368;6.140;2022-09-12T05:31:59;71.10;;;37.47;;
15806;SDS011;8005;51.368;6.140;2022-09-12T05:33:32;64.72;;;35.22;;
15806;SDS011;8005;51.368;6.140;2022-09-12T05:35:07;70.57;;;36.10;;
15806;SDS011;8005;51.368;6.140;2022-09-12T05:36:39;69.63;;;35.42;;
15806;SDS011;8005;51.368;6.140;2022-09-12T05:38:13;69.47;;;36.05;;
15806;SDS011;8005;51.368;6.140;2022-09-12T05:39:45;72.40;;;36.30;;
15806;SDS011;8005;51.368;6.140;2022-09-12T05:41:18;66.10;;;35.43;;
15806;SDS011;8005;51.368;6.140;2022-09-12T05:42:58;69.68;;;35.90;;
15806;SDS011;8005;51.368;6.140;2022-09-12T05:44:32;65.65;;;35.22;;
15806;SDS011;8005;51.368;6.140;2022-09-12T05:46:14;66.45;;;35.85;;
15806;SDS011;8005;51.368;6.140;2022-09-12T05:47:49;68.65;;;36.13;;
15806;SDS011;8005;51.368;6.140;2022-09-12T05:49:23;70.15;;;37.75;;
15806;SDS011;8005;51.368;6.140;2022-09-12T05:50:59;74.00;;;38.53;;
15806;SDS011;8005;51.368;6.140;2022-09-12T05:52:32;66.70;;;36.38;;
15806;SDS011;8005;51.368;6.140;2022-09-12T05:54:04;70.43;;;36.07;;
15806;SDS011;8005;51.368;6.140;2022-09-12T05:55:37;71.57;;;35.85;;
15806;SDS011;8005;51.368;6.140;2022-09-12T05:57:10;72.07;;;37.92;;
15806;SDS011;8005;51.368;6.140;2022-09-12T05:58:42;76.63;;;37.15;;
15806;SDS011;8005;51.368;6.140;2022-09-12T06:00:15;74.63;;;37.20;;
15806;SDS011;8005;51.368;6.140;2022-09-12T06:01:47;64.93;;;35.20;;
15806;SDS011;8005;51.368;6.140;2022-09-12T06:03:20;69.68;;;36.78;;
15806;SDS011;8005;51.368;6.140;2022-09-12T06:04:51;67.90;;;37.00;;
15806;SDS011;8005;51.368;6.140;2022-09-12T06:06:24;74.35;;;38.33;;
15806;SDS011;8005;51.368;6.140;2022-09-12T06:07:56;70.28;;;35.95;;
15806;SDS011;8005;51.368;6.140;2022-09-12T06:09:28;70.15;;;36.33;;
15806;SDS011;8005;51.368;6.140;2022-09-12T06:11:03;67.85;;;36.47;;
15806;SDS011;8005;51.368;6.140;2022-09-12T06:12:35;65.88;;;35.92;;
15806;SDS011;8005;51.368;6.140;2022-09-12T06:14:08;71.38;;;35.55;;
15806;SDS011;8005;51.368;6.140;2022-09-12T06:17:14;62.78;;;34.30;;
15806;SDS011;8005;51.368;6.140;2022-09-12T06:18:47;68.77;;;36.17;;
15806;SDS011;8005;51.368;6.140;2022-09-12T06:20:19;66.60;;;34.95;;
15806;SDS011;8005;51.368;6.140;2022-09-12T06:21:54;67.60;;;35.85;;
15806;SDS011;8005;51.368;6.140;2022-09-12T06:23:26;63.80;;;33.65;;
15806;SDS011;8005;51.368;6.140;2022-09-12T06:24:58;60.93;;;34.13;;
15806;SDS011;8005;51.368;6.140;2022-09-12T06:26:30;59.58;;;34.38;;
15806;SDS011;8005;51.368;6.140;2022-09-12T06:28:02;63.05;;;34.28;;
15806;SDS011;8005;51.368;6.140;2022-09-12T06:29:33;66.05;;;34.35;;
15806;SDS011;8005;51.368;6.140;2022-09-12T06:31:09;69.47;;;35.50;;
15806;SDS011;8005;51.368;6.140;2022-09-12T06:32:41;61.85;;;34.67;;
15806;SDS011;8005;51.368;6.140;2022-09-12T06:34:14;57.97;;;33.37;;
15806;SDS011;8005;51.368;6.140;2022-09-12T06:35:46;62.28;;;34.63;;
15806;SDS011;8005;51.368;6.140;2022-09-12T06:37:17;62.03;;;33.92;;
15806;SDS011;8005;51.368;6.140;2022-09-12T06:39:32;58.08;;;33.70;;
15806;SDS011;8005;51.368;6.140;2022-09-12T06:40:51;61.03;;;35.00;;
15806;SDS011;8005;51.368;6.140;2022-09-12T06:42:23;59.67;;;34.13;;
15806;SDS011;8005;51.368;6.140;2022-09-12T06:44:00;56.53;;;32.90;;
15806;SDS011;8005;51.368;6.140;2022-09-12T06:45:32;59.17;;;33.28;;
15806;SDS011;8005;51.368;6.140;2022-09-12T06:47:04;60.10;;;33.70;;
15806;SDS011;8005;51.368;6.140;2022-09-12T06:48:36;59.07;;;34.27;;
15806;SDS011;8005;51.368;6.140;2022-09-12T06:50:12;55.85;;;32.70;;
15806;SDS011;8005;51.368;6.140;2022-09-12T06:51:44;55.50;;;34.08;;
15806;SDS011;8005;51.368;6.140;2022-09-12T06:53:16;52.80;;;32.38;;
15806;SDS011;8005;51.368;6.140;2022-09-12T06:54:48;57.67;;;33.47;;
15806;SDS011;8005;51.368;6.140;2022-09-12T06:56:21;57.40;;;33.45;;
15806;SDS011;8005;51.368;6.140;2022-09-12T06:57:54;60.38;;;33.10;;
15806;SDS011;8005;51.368;6.140;2022-09-12T06:59:28;54.38;;;32.67;;
15806;SDS011;8005;51.368;6.140;2022-09-12T07:01:10;55.92;;;33.10;;
15806;SDS011;8005;51.368;6.140;2022-09-12T07:02:43;56.85;;;32.08;;
15806;SDS011;8005;51.368;6.140;2022-09-12T07:04:14;55.58;;;33.00;;
15806;SDS011;8005;51.368;6.140;2022-09-12T07:05:46;61.58;;;32.90;;
15806;SDS011;8005;51.368;6.140;2022-09-12T07:07:18;57.53;;;31.83;;
15806;SDS011;8005;51.368;6.140;2022-09-12T07:08:50;56.67;;;31.48;;
15806;SDS011;8005;51.368;6.140;2022-09-12T07:10:22;56.70;;;32.75;;
15806;SDS011;8005;51.368;6.140;2022-09-12T07:11:54;52.60;;;32.15;;
15806;SDS011;8005;51.368;6.140;2022-09-12T07:13:26;51.67;;;31.27;;
15806;SDS011;8005;51.368;6.140;2022-09-12T07:14:58;55.03;;;31.90;;
15806;SDS011;8005;51.368;6.140;2022-09-12T07:16:30;52.73;;;32.17;;
15806;SDS011;8005;51.368;6.140;2022-09-12T07:18:05;54.47;;;31.52;;
15806;SDS011;8005;51.368;6.140;2022-09-12T07:19:37;55.50;;;31.17;;
15806;SDS011;8005;51.368;6.140;2022-09-12T07:21:10;50.33;;;31.40;;
15806;SDS011;8005;51.368;6.140;2022-09-12T07:22:42;52.70;;;31.38;;
15806;SDS011;8005;51.368;6.140;2022-09-12T07:24:14;48.57;;;29.53;;
15806;SDS011;8005;51.368;6.140;2022-09-12T07:25:51;56.95;;;31.52;;
15806;SDS011;8005;51.368;6.140;2022-09-12T07:27:23;59.85;;;30.85;;
15806;SDS011;8005;51.368;6.140;2022-09-12T07:28:55;57.17;;;31.97;;
15806;SDS011;8005;51.368;6.140;2022-09-12T07:30:47;53.05;;;31.08;;
15806;SDS011;8005;51.368;6.140;2022-09-12T07:32:19;55.10;;;31.92;;
15806;SDS011;8005;51.368;6.140;2022-09-12T07:33:51;53.83;;;31.02;;
15806;SDS011;8005;51.368;6.140;2022-09-12T07:35:25;50.40;;;30.42;;
15806;SDS011;8005;51.368;6.140;2022-09-12T07:36:57;49.77;;;31.00;;
15806;SDS011;8005;51.368;6.140;2022-09-12T07:38:29;50.50;;;31.23;;
15806;SDS011;8005;51.368;6.140;2022-09-12T07:40:01;53.83;;;31.50;;
15806;SDS011;8005;51.368;6.140;2022-09-12T07:41:33;55.55;;;33.00;;
15806;SDS011;8005;51.368;6.140;2022-09-12T07:43:06;56.65;;;32.90;;
15806;SDS011;8005;51.368;6.140;2022-09-12T07:44:38;60.42;;;32.10;;
15806;SDS011;8005;51.368;6.140;2022-09-12T07:46:10;52.50;;;30.63;;
15806;SDS011;8005;51.368;6.140;2022-09-12T07:47:42;50.00;;;30.65;;
15806;SDS011;8005;51.368;6.140;2022-09-12T07:49:16;50.92;;;31.25;;
15806;SDS011;8005;51.368;6.140;2022-09-12T07:50:55;49.50;;;30.35;;
15806;SDS011;8005;51.368;6.140;2022-09-12T07:52:27;44.05;;;28.23;;
15806;SDS011;8005;51.368;6.140;2022-09-12T07:53:59;47.70;;;28.65;;
15806;SDS011;8005;51.368;6.140;2022-09-12T07:55:31;44.63;;;29.13;;
15806;SDS011;8005;51.368;6.140;2022-09-12T07:57:03;46.78;;;29.52;;
15806;SDS011;8005;51.368;6.140;2022-09-12T07:58:36;46.67;;;28.08;;
15806;SDS011;8005;51.368;6.140;2022-09-12T08:01:47;49.80;;;27.77;;
15806;SDS011;8005;51.368;6.140;2022-09-12T08:03:19;43.50;;;27.10;;
15806;SDS011;8005;51.368;6.140;2022-09-12T08:04:51;43.10;;;26.90;;
15806;SDS011;8005;51.368;6.140;2022-09-12T08:06:23;39.10;;;25.25;;
15806;SDS011;8005;51.368;6.140;2022-09-12T08:07:55;43.30;;;26.38;;
15806;SDS011;8005;51.368;6.140;2022-09-12T08:09:28;41.40;;;26.27;;
15806;SDS011;8005;51.368;6.140;2022-09-12T08:11:01;38.40;;;25.75;;
15806;SDS011;8005;51.368;6.140;2022-09-12T08:12:33;40.42;;;27.23;;
15806;SDS011;8005;51.368;6.140;2022-09-12T08:14:05;40.50;;;26.30;;
15806;SDS011;8005;51.368;6.140;2022-09-12T08:15:37;40.40;;;26.75;;
15806;SDS011;8005;51.368;6.140;2022-09-12T08:17:09;42.25;;;25.05;;
15806;SDS011;8005;51.368;6.140;2022-09-12T08:18:41;40.17;;;25.83;;
15806;SDS011;8005;51.368;6.140;2022-09-12T08:20:13;39.83;;;25.60;;
15806;SDS011;8005;51.368;6.140;2022-09-12T08:21:45;39.23;;;25.03;;
15806;SDS011;8005;51.368;6.140;2022-09-12T08:23:16;39.42;;;25.38;;
15806;SDS011;8005;51.368;6.140;2022-09-12T08:24:51;40.17;;;24.45;;
15806;SDS011;8005;51.368;6.140;2022-09-12T08:26:24;38.72;;;24.88;;
15806;SDS011;8005;51.368;6.140;2022-09-12T08:27:56;38.22;;;25.02;;
15806;SDS011;8005;51.368;6.140;2022-09-12T08:29:27;39.70;;;23.83;;
15806;SDS011;8005;51.368;6.140;2022-09-12T08:31:03;33.80;;;23.10;;
15806;SDS011;8005;51.368;6.140;2022-09-12T08:32:35;31.67;;;22.10;;
15806;SDS011;8005;51.368;6.140;2022-09-12T08:34:07;33.75;;;22.27;;
15806;SDS011;8005;51.368;6.140;2022-09-12T08:35:39;35.08;;;22.58;;
15806;SDS011;8005;51.368;6.140;2022-09-12T08:37:11;34.93;;;23.03;;
15806;SDS011;8005;51.368;6.140;2022-09-12T08:38:43;29.60;;;21.67;;
15806;SDS011;8005;51.368;6.140;2022-09-12T08:40:15;29.10;;;20.63;;
15806;SDS011;8005;51.368;6.140;2022-09-12T08:41:48;34.70;;;23.92;;
15806;SDS011;8005;51.368;6.140;2022-09-12T08:45:30;29.45;;;20.35;;
15806;SDS011;8005;51.368;6.140;2022-09-12T08:48:37;30.35;;;20.33;;
15806;SDS011;8005;51.368;6.140;2022-09-12T08:51:42;27.55;;;17.58;;
15806;SDS011;8005;51.368;6.140;2022-09-12T08:53:15;25.83;;;18.77;;
15806;SDS011;8005;51.368;6.140;2022-09-12T08:54:50;24.23;;;18.65;;
15806;SDS011;8005;51.368;6.140;2022-09-12T08:56:23;29.55;;;18.33;;
15806;SDS011;8005;51.368;6.140;2022-09-12T08:58:15;26.25;;;17.65;;
15806;SDS011;8005;51.368;6.140;2022-09-12T08:59:50;26.40;;;17.60;;
15806;SDS011;8005;51.368;6.140;2022-09-12T09:01:28;23.95;;;16.70;;
15806;SDS011;8005;51.368;6.140;2022-09-12T09:04:55;20.45;;;13.55;;
15806;SDS011;8005;51.368;6.140;2022-09-12T09:13:12;20.15;;;13.80;;
15806;SDS011;8005;51.368;6.140;2022-09-12T09:16:42;17.38;;;11.70;;
15806;SDS011;8005;51.368;6.140;2022-09-12T09:18:19;15.90;;;11.40;;
15806;SDS011;8005;51.368;6.140;2022-09-12T09:20:02;19.55;;;11.38;;
15806;SDS011;8005;51.368;6.140;2022-09-12T09:23:15;15.77;;;11.25;;
15806;SDS011;8005;51.368;6.140;2022-09-12T09:24:50;15.48;;;10.27;;
15806;SDS011;8005;51.368;6.140;2022-09-12T09:26:28;13.02;;;10.07;;
15806;SDS011;8005;51.368;6.140;2022-09-12T09:28:02;14.07;;;11.25;;
15806;SDS011;8005;51.368;6.140;2022-09-12T09:29:35;14.60;;;10.13;;
15806;SDS011;8005;51.368;6.140;2022-09-12T09:31:11;15.68;;;10.57;;
15806;SDS011;8005;51.368;6.140;2022-09-12T09:32:47;13.43;;;10.40;;
15806;SDS011;8005;51.368;6.140;2022-09-12T09:34:21;13.02;;;9.13;;
15806;SDS011;8005;51.368;6.140;2022-09-12T09:37:36;13.38;;;8.57;;
15806;SDS011;8005;51.368;6.140;2022-09-12T09:39:14;11.27;;;8.77;;
15806;SDS011;8005;51.368;6.140;2022-09-12T09:44:26;12.13;;;8.95;;
15806;SDS011;8005;51.368;6.140;2022-09-12T09:45:58;17.00;;;9.80;;
15806;SDS011;8005;51.368;6.140;2022-09-12T09:47:31;11.73;;;8.23;;
15806;SDS011;8005;51.368;6.140;2022-09-12T09:49:03;13.02;;;8.70;;
15806;SDS011;8005;51.368;6.140;2022-09-12T09:50:37;12.32;;;8.65;;
15806;SDS011;8005;51.368;6.140;2022-09-12T09:52:09;9.38;;;7.20;;
15806;SDS011;8005;51.368;6.140;2022-09-12T09:53:45;10.52;;;7.30;;
15806;SDS011;8005;51.368;6.140;2022-09-12T09:55:19;8.90;;;7.10;;
15806;SDS011;8005;51.368;6.140;2022-09-12T09:56:55;10.77;;;7.07;;
15806;SDS011;8005;51.368;6.140;2022-09-12T09:58:31;10.65;;;7.32;;
15806;SDS011;8005;51.368;6.140;2022-09-12T10:03:39;7.32;;;5.35;;
15806;SDS011;8005;51.368;6.140;2022-09-12T10:05:19;8.27;;;5.90;;
15806;SDS011;8005;51.368;6.140;2022-09-12T10:06:53;6.35;;;5.05;;
15806;SDS011;8005;51.368;6.140;2022-09-12T10:08:26;6.63;;;4.85;;
15806;SDS011;8005;51.368;6.140;2022-09-12T10:10:17;8.50;;;6.07;;
15806;SDS011;8005;51.368;6.140;2022-09-12T10:11:49;7.43;;;5.25;;
15806;SDS011;8005;51.368;6.140;2022-09-12T10:13:29;8.88;;;5.40;;
15806;SDS011;8005;51.368;6.140;2022-09-12T10:15:12;81.22;;;15.57;;
15806;SDS011;8005;51.368;6.140;2022-09-12T10:16:49;49.33;;;13.00;;
15806;SDS011;8005;51.368;6.140;2022-09-12T10:18:31;17.77;;;5.97;;
15806;SDS011;8005;51.368;6.140;2022-09-12T10:20:04;13.25;;;5.97;;
15806;SDS011;8005;51.368;6.140;2022-09-12T10:21:54;40.28;;;10.88;;
15806;SDS011;8005;51.368;6.140;2022-09-12T10:23:35;8.52;;;5.47;;
15806;SDS011;8005;51.368;6.140;2022-09-12T10:25:14;8.82;;;5.63;;
15806;SDS011;8005;51.368;6.140;2022-09-12T10:27:34;7.80;;;5.00;;
15806;SDS011;8005;51.368;6.140;2022-09-12T10:28:42;5.60;;;3.92;;
15806;SDS011;8005;51.368;6.140;2022-09-12T10:30:19;7.68;;;5.43;;
15806;SDS011;8005;51.368;6.140;2022-09-12T10:33:24;7.18;;;4.18;;
15806;SDS011;8005;51.368;6.140;2022-09-12T10:35:00;4.57;;;3.70;;
15806;SDS011;8005;51.368;6.140;2022-09-12T10:36:36;8.07;;;3.92;;
15806;SDS011;8005;51.368;6.140;2022-09-12T10:38:27;6.43;;;4.20;;
15806;SDS011;8005;51.368;6.140;2022-09-12T10:40:01;6.45;;;3.72;;
15806;SDS011;8005;51.368;6.140;2022-09-12T10:41:36;5.05;;;4.32;;
15806;SDS011;8005;51.368;6.140;2022-09-12T10:43:23;5.00;;;4.10;;
15806;SDS011;8005;51.368;6.140;2022-09-12T10:44:59;6.57;;;3.15;;
15806;SDS011;8005;51.368;6.140;2022-09-12T10:46:31;4.18;;;3.50;;
15806;SDS011;8005;51.368;6.140;2022-09-12T10:49:53;3.88;;;3.33;;
15806;SDS011;8005;51.368;6.140;2022-09-12T10:51:53;3.90;;;3.42;;
15806;SDS011;8005;51.368;6.140;2022-09-12T10:55:01;4.10;;;3.60;;
15806;SDS011;8005;51.368;6.140;2022-09-12T10:56:35;5.10;;;3.67;;
15806;SDS011;8005;51.368;6.140;2022-09-12T11:00:16;5.38;;;3.40;;
15806;SDS011;8005;51.368;6.140;2022-09-12T11:05:47;5.25;;;3.45;;
15806;SDS011;8005;51.368;6.140;2022-09-12T11:09:00;8.70;;;3.60;;
15806;SDS011;8005;51.368;6.140;2022-09-12T11:10:38;5.07;;;3.28;;
15806;SDS011;8005;51.368;6.140;2022-09-12T11:15:53;3.58;;;2.70;;